sensor_id;sensor_type;location;lat;lon;timestamp;P1;durP1;ratioP1;P2;durP2;ratioP2
6640;SDS011;3356;49.360;8.266;2022-11-13T00:01:20;28.00;;;15.73;;
6640;SDS011;3356;49.360;8.266;2022-11-13T00:03:41;23.87;;;15.80;;
6640;SDS011;3356;49.360;8.266;2022-11-13T00:06:01;28.37;;;15.83;;
6640;SDS011;3356;49.360;8.266;2022-11-13T00:08:22;27.97;;;15.60;;
6640;SDS011;3356;49.360;8.266;2022-11-13T00:10:41;28.97;;;16.47;;
6640;SDS011;3356;49.360;8.266;2022-11-13T00:13:01;27.50;;;16.10;;
6640;SDS011;3356;49.360;8.266;2022-11-13T00:15:21;23.00;;;14.80;;
6640;SDS011;3356;49.360;8.266;2022-11-13T00:17:40;27.80;;;15.73;;
6640;SDS011;3356;49.360;8.266;2022-11-13T00:20:00;28.40;;;15.37;;
6640;SDS011;3356;49.360;8.266;2022-11-13T00:22:19;24.00;;;15.57;;
6640;SDS011;3356;49.360;8.266;2022-11-13T00:24:39;37.00;;;15.77;;
6640;SDS011;3356;49.360;8.266;2022-11-13T00:26:58;26.47;;;15.50;;
6640;SDS011;3356;49.360;8.266;2022-11-13T00:29:18;32.30;;;15.67;;
6640;SDS011;3356;49.360;8.266;2022-11-13T00:31:38;24.03;;;15.03;;
6640;SDS011;3356;49.360;8.266;2022-11-13T00:33:58;27.27;;;16.70;;
6640;SDS011;3356;49.360;8.266;2022-11-13T00:36:19;24.40;;;14.57;;
6640;SDS011;3356;49.360;8.266;2022-11-13T00:38:41;19.87;;;13.40;;
6640;SDS011;3356;49.360;8.266;2022-11-13T00:41:01;23.53;;;13.70;;
6640;SDS011;3356;49.360;8.266;2022-11-13T00:43:21;21.63;;;13.70;;
6640;SDS011;3356;49.360;8.266;2022-11-13T00:45:40;29.70;;;15.43;;
6640;SDS011;3356;49.360;8.266;2022-11-13T00:48:00;20.93;;;13.37;;
6640;SDS011;3356;49.360;8.266;2022-11-13T00:50:19;21.80;;;13.47;;
6640;SDS011;3356;49.360;8.266;2022-11-13T00:52:39;24.27;;;13.47;;
6640;SDS011;3356;49.360;8.266;2022-11-13T00:54:59;27.57;;;15.33;;
6640;SDS011;3356;49.360;8.266;2022-11-13T00:57:19;24.00;;;13.73;;
6640;SDS011;3356;49.360;8.266;2022-11-13T00:59:38;21.03;;;13.30;;
6640;SDS011;3356;49.360;8.266;2022-11-13T01:01:58;22.27;;;14.23;;
6640;SDS011;3356;49.360;8.266;2022-11-13T01:04:17;23.33;;;13.53;;
6640;SDS011;3356;49.360;8.266;2022-11-13T01:06:37;20.93;;;13.27;;
6640;SDS011;3356;49.360;8.266;2022-11-13T01:08:57;25.07;;;13.10;;
6640;SDS011;3356;49.360;8.266;2022-11-13T01:11:18;26.10;;;14.20;;
6640;SDS011;3356;49.360;8.266;2022-11-13T01:13:39;24.33;;;13.63;;
6640;SDS011;3356;49.360;8.266;2022-11-13T01:16:03;21.27;;;13.20;;
6640;SDS011;3356;49.360;8.266;2022-11-13T01:18:24;20.60;;;13.40;;
6640;SDS011;3356;49.360;8.266;2022-11-13T01:20:44;24.33;;;14.10;;
6640;SDS011;3356;49.360;8.266;2022-11-13T01:23:03;22.47;;;13.33;;
6640;SDS011;3356;49.360;8.266;2022-11-13T01:25:23;24.63;;;13.80;;
6640;SDS011;3356;49.360;8.266;2022-11-13T01:27:43;25.03;;;13.63;;
6640;SDS011;3356;49.360;8.266;2022-11-13T01:30:03;24.10;;;14.73;;
6640;SDS011;3356;49.360;8.266;2022-11-13T01:32:24;26.13;;;14.20;;
6640;SDS011;3356;49.360;8.266;2022-11-13T01:34:43;25.93;;;15.47;;
6640;SDS011;3356;49.360;8.266;2022-11-13T01:37:02;31.23;;;15.47;;
6640;SDS011;3356;49.360;8.266;2022-11-13T01:39:22;25.23;;;15.33;;
6640;SDS011;3356;49.360;8.266;2022-11-13T01:41:42;24.07;;;14.60;;
6640;SDS011;3356;49.360;8.266;2022-11-13T01:44:02;20.83;;;13.57;;
6640;SDS011;3356;49.360;8.266;2022-11-13T01:46:26;20.37;;;13.23;;
6640;SDS011;3356;49.360;8.266;2022-11-13T01:49:14;25.57;;;14.23;;
6640;SDS011;3356;49.360;8.266;2022-11-13T01:53:58;29.53;;;15.27;;
6640;SDS011;3356;49.360;8.266;2022-11-13T01:56:21;29.70;;;16.87;;
6640;SDS011;3356;49.360;8.266;2022-11-13T01:58:41;27.07;;;16.30;;
6640;SDS011;3356;49.360;8.266;2022-11-13T02:01:05;26.03;;;16.40;;
6640;SDS011;3356;49.360;8.266;2022-11-13T02:03:25;28.27;;;16.67;;
6640;SDS011;3356;49.360;8.266;2022-11-13T02:05:44;32.23;;;17.83;;
6640;SDS011;3356;49.360;8.266;2022-11-13T02:08:04;29.30;;;17.03;;
6640;SDS011;3356;49.360;8.266;2022-11-13T02:10:24;29.77;;;16.43;;
6640;SDS011;3356;49.360;8.266;2022-11-13T02:12:45;33.43;;;18.00;;
6640;SDS011;3356;49.360;8.266;2022-11-13T02:15:08;29.70;;;16.37;;
6640;SDS011;3356;49.360;8.266;2022-11-13T02:17:39;32.77;;;18.10;;
6640;SDS011;3356;49.360;8.266;2022-11-13T02:20:05;31.23;;;17.77;;
6640;SDS011;3356;49.360;8.266;2022-11-13T02:24:54;28.50;;;16.57;;
6640;SDS011;3356;49.360;8.266;2022-11-13T02:32:41;26.80;;;16.40;;
6640;SDS011;3356;49.360;8.266;2022-11-13T02:35:03;28.73;;;17.10;;
6640;SDS011;3356;49.360;8.266;2022-11-13T02:37:22;29.87;;;17.47;;
6640;SDS011;3356;49.360;8.266;2022-11-13T02:39:42;31.67;;;17.47;;
6640;SDS011;3356;49.360;8.266;2022-11-13T02:42:01;30.23;;;17.60;;
6640;SDS011;3356;49.360;8.266;2022-11-13T02:44:21;33.93;;;18.23;;
6640;SDS011;3356;49.360;8.266;2022-11-13T02:46:41;31.70;;;17.87;;
6640;SDS011;3356;49.360;8.266;2022-11-13T02:49:00;28.03;;;17.20;;
6640;SDS011;3356;49.360;8.266;2022-11-13T02:51:20;32.07;;;19.43;;
6640;SDS011;3356;49.360;8.266;2022-11-13T02:53:39;30.43;;;18.47;;
6640;SDS011;3356;49.360;8.266;2022-11-13T02:55:59;31.37;;;18.77;;
6640;SDS011;3356;49.360;8.266;2022-11-13T02:58:18;29.23;;;18.10;;
6640;SDS011;3356;49.360;8.266;2022-11-13T03:00:38;35.37;;;16.73;;
6640;SDS011;3356;49.360;8.266;2022-11-13T03:02:58;28.03;;;16.27;;
6640;SDS011;3356;49.360;8.266;2022-11-13T03:05:18;27.23;;;15.97;;
6640;SDS011;3356;49.360;8.266;2022-11-13T03:07:37;40.17;;;17.63;;
6640;SDS011;3356;49.360;8.266;2022-11-13T03:09:57;38.23;;;18.40;;
6640;SDS011;3356;49.360;8.266;2022-11-13T03:12:16;49.40;;;18.40;;
6640;SDS011;3356;49.360;8.266;2022-11-13T03:14:36;40.53;;;19.30;;
6640;SDS011;3356;49.360;8.266;2022-11-13T03:16:56;42.50;;;16.67;;
6640;SDS011;3356;49.360;8.266;2022-11-13T03:19:16;29.87;;;16.03;;
6640;SDS011;3356;49.360;8.266;2022-11-13T03:21:35;26.77;;;16.13;;
6640;SDS011;3356;49.360;8.266;2022-11-13T03:23:55;27.87;;;16.27;;
6640;SDS011;3356;49.360;8.266;2022-11-13T03:26:15;34.90;;;17.07;;
6640;SDS011;3356;49.360;8.266;2022-11-13T03:28:35;27.97;;;16.90;;
6640;SDS011;3356;49.360;8.266;2022-11-13T03:30:55;37.73;;;17.23;;
6640;SDS011;3356;49.360;8.266;2022-11-13T03:33:15;34.23;;;17.23;;
6640;SDS011;3356;49.360;8.266;2022-11-13T03:35:34;29.53;;;16.87;;
6640;SDS011;3356;49.360;8.266;2022-11-13T03:37:54;42.90;;;16.33;;
6640;SDS011;3356;49.360;8.266;2022-11-13T03:40:13;26.10;;;15.67;;
6640;SDS011;3356;49.360;8.266;2022-11-13T03:42:33;39.77;;;15.27;;
6640;SDS011;3356;49.360;8.266;2022-11-13T03:44:53;26.00;;;14.97;;
6640;SDS011;3356;49.360;8.266;2022-11-13T03:47:13;33.10;;;15.77;;
6640;SDS011;3356;49.360;8.266;2022-11-13T03:49:33;26.83;;;16.17;;
6640;SDS011;3356;49.360;8.266;2022-11-13T03:51:52;29.57;;;15.43;;
6640;SDS011;3356;49.360;8.266;2022-11-13T03:54:12;55.63;;;15.17;;
6640;SDS011;3356;49.360;8.266;2022-11-13T03:56:32;27.70;;;13.70;;
6640;SDS011;3356;49.360;8.266;2022-11-13T03:58:52;28.03;;;16.10;;
6640;SDS011;3356;49.360;8.266;2022-11-13T04:01:11;37.77;;;15.63;;
6640;SDS011;3356;49.360;8.266;2022-11-13T04:03:31;24.53;;;14.93;;
6640;SDS011;3356;49.360;8.266;2022-11-13T04:05:51;25.37;;;14.60;;
6640;SDS011;3356;49.360;8.266;2022-11-13T04:08:11;24.17;;;15.00;;
6640;SDS011;3356;49.360;8.266;2022-11-13T04:10:31;35.63;;;14.50;;
6640;SDS011;3356;49.360;8.266;2022-11-13T04:12:50;23.30;;;13.37;;
6640;SDS011;3356;49.360;8.266;2022-11-13T04:15:10;24.53;;;14.07;;
6640;SDS011;3356;49.360;8.266;2022-11-13T04:17:29;35.30;;;14.07;;
6640;SDS011;3356;49.360;8.266;2022-11-13T04:19:49;26.10;;;13.43;;
6640;SDS011;3356;49.360;8.266;2022-11-13T04:22:09;50.10;;;12.93;;
6640;SDS011;3356;49.360;8.266;2022-11-13T04:24:28;23.07;;;12.87;;
6640;SDS011;3356;49.360;8.266;2022-11-13T04:26:48;47.77;;;11.20;;
6640;SDS011;3356;49.360;8.266;2022-11-13T04:29:07;33.30;;;11.80;;
6640;SDS011;3356;49.360;8.266;2022-11-13T04:31:27;21.63;;;11.37;;
6640;SDS011;3356;49.360;8.266;2022-11-13T04:33:46;32.33;;;11.83;;
6640;SDS011;3356;49.360;8.266;2022-11-13T04:36:06;26.90;;;10.60;;
6640;SDS011;3356;49.360;8.266;2022-11-13T04:38:26;27.17;;;12.40;;
6640;SDS011;3356;49.360;8.266;2022-11-13T04:40:47;36.27;;;11.27;;
6640;SDS011;3356;49.360;8.266;2022-11-13T04:43:09;34.07;;;11.87;;
6640;SDS011;3356;49.360;8.266;2022-11-13T04:45:29;30.10;;;12.37;;
6640;SDS011;3356;49.360;8.266;2022-11-13T04:47:49;33.43;;;11.47;;
6640;SDS011;3356;49.360;8.266;2022-11-13T04:50:09;22.60;;;12.00;;
6640;SDS011;3356;49.360;8.266;2022-11-13T04:52:29;17.73;;;11.43;;
6640;SDS011;3356;49.360;8.266;2022-11-13T04:54:49;21.80;;;11.60;;
6640;SDS011;3356;49.360;8.266;2022-11-13T04:57:09;23.93;;;12.00;;
6640;SDS011;3356;49.360;8.266;2022-11-13T04:59:29;19.77;;;12.23;;
6640;SDS011;3356;49.360;8.266;2022-11-13T05:01:49;24.93;;;11.40;;
6640;SDS011;3356;49.360;8.266;2022-11-13T05:04:10;19.80;;;12.20;;
6640;SDS011;3356;49.360;8.266;2022-11-13T05:06:31;17.17;;;11.70;;
6640;SDS011;3356;49.360;8.266;2022-11-13T05:08:51;18.20;;;11.93;;
6640;SDS011;3356;49.360;8.266;2022-11-13T05:11:10;22.70;;;12.47;;
6640;SDS011;3356;49.360;8.266;2022-11-13T05:13:31;19.03;;;12.53;;
6640;SDS011;3356;49.360;8.266;2022-11-13T05:15:58;32.27;;;12.27;;
6640;SDS011;3356;49.360;8.266;2022-11-13T05:18:20;21.60;;;12.03;;
6640;SDS011;3356;49.360;8.266;2022-11-13T05:20:43;20.43;;;12.47;;
6640;SDS011;3356;49.360;8.266;2022-11-13T05:23:03;33.07;;;11.70;;
6640;SDS011;3356;49.360;8.266;2022-11-13T05:25:23;18.23;;;12.33;;
6640;SDS011;3356;49.360;8.266;2022-11-13T05:27:43;30.17;;;14.37;;
6640;SDS011;3356;49.360;8.266;2022-11-13T05:30:02;19.27;;;12.27;;
6640;SDS011;3356;49.360;8.266;2022-11-13T05:32:23;28.77;;;11.73;;
6640;SDS011;3356;49.360;8.266;2022-11-13T05:34:42;25.20;;;11.20;;
6640;SDS011;3356;49.360;8.266;2022-11-13T05:37:02;18.73;;;11.03;;
6640;SDS011;3356;49.360;8.266;2022-11-13T05:39:22;29.07;;;12.20;;
6640;SDS011;3356;49.360;8.266;2022-11-13T05:41:41;24.00;;;12.23;;
6640;SDS011;3356;49.360;8.266;2022-11-13T05:44:01;22.67;;;12.30;;
6640;SDS011;3356;49.360;8.266;2022-11-13T05:46:22;44.47;;;12.53;;
6640;SDS011;3356;49.360;8.266;2022-11-13T05:48:44;31.30;;;12.87;;
6640;SDS011;3356;49.360;8.266;2022-11-13T05:51:06;20.17;;;12.80;;
6640;SDS011;3356;49.360;8.266;2022-11-13T05:53:28;25.27;;;13.33;;
6640;SDS011;3356;49.360;8.266;2022-11-13T05:55:48;22.17;;;12.70;;
6640;SDS011;3356;49.360;8.266;2022-11-13T05:58:07;27.50;;;12.70;;
6640;SDS011;3356;49.360;8.266;2022-11-13T06:00:27;22.87;;;13.83;;
6640;SDS011;3356;49.360;8.266;2022-11-13T06:02:46;26.67;;;14.27;;
6640;SDS011;3356;49.360;8.266;2022-11-13T06:05:06;23.87;;;14.83;;
6640;SDS011;3356;49.360;8.266;2022-11-13T06:07:26;21.73;;;13.93;;
6640;SDS011;3356;49.360;8.266;2022-11-13T06:09:45;23.23;;;14.20;;
6640;SDS011;3356;49.360;8.266;2022-11-13T06:12:05;26.30;;;13.03;;
6640;SDS011;3356;49.360;8.266;2022-11-13T06:14:24;18.63;;;13.87;;
6640;SDS011;3356;49.360;8.266;2022-11-13T06:16:44;19.43;;;13.43;;
6640;SDS011;3356;49.360;8.266;2022-11-13T06:19:04;21.07;;;13.83;;
6640;SDS011;3356;49.360;8.266;2022-11-13T06:21:26;21.77;;;13.93;;
6640;SDS011;3356;49.360;8.266;2022-11-13T06:23:47;26.03;;;14.07;;
6640;SDS011;3356;49.360;8.266;2022-11-13T06:26:11;22.00;;;12.80;;
6640;SDS011;3356;49.360;8.266;2022-11-13T06:28:36;21.30;;;14.13;;
6640;SDS011;3356;49.360;8.266;2022-11-13T06:31:01;22.33;;;14.23;;
6640;SDS011;3356;49.360;8.266;2022-11-13T06:33:26;28.67;;;14.03;;
6640;SDS011;3356;49.360;8.266;2022-11-13T06:35:47;20.27;;;14.17;;
6640;SDS011;3356;49.360;8.266;2022-11-13T06:38:06;23.50;;;13.33;;
6640;SDS011;3356;49.360;8.266;2022-11-13T06:40:25;21.13;;;13.63;;
6640;SDS011;3356;49.360;8.266;2022-11-13T06:42:45;27.23;;;14.50;;
6640;SDS011;3356;49.360;8.266;2022-11-13T06:45:05;21.63;;;14.83;;
6640;SDS011;3356;49.360;8.266;2022-11-13T06:47:24;30.70;;;14.10;;
6640;SDS011;3356;49.360;8.266;2022-11-13T06:49:45;20.43;;;14.10;;
6640;SDS011;3356;49.360;8.266;2022-11-13T06:52:05;24.87;;;15.50;;
6640;SDS011;3356;49.360;8.266;2022-11-13T06:54:25;23.30;;;14.67;;
6640;SDS011;3356;49.360;8.266;2022-11-13T06:56:45;32.10;;;15.60;;
6640;SDS011;3356;49.360;8.266;2022-11-13T06:59:04;22.07;;;15.13;;
6640;SDS011;3356;49.360;8.266;2022-11-13T07:01:24;25.67;;;14.40;;
6640;SDS011;3356;49.360;8.266;2022-11-13T07:03:45;30.63;;;14.90;;
6640;SDS011;3356;49.360;8.266;2022-11-13T07:06:06;22.47;;;13.97;;
6640;SDS011;3356;49.360;8.266;2022-11-13T07:08:28;21.17;;;14.23;;
6640;SDS011;3356;49.360;8.266;2022-11-13T07:10:55;27.33;;;14.90;;
6640;SDS011;3356;49.360;8.266;2022-11-13T07:13:15;22.87;;;14.13;;
6640;SDS011;3356;49.360;8.266;2022-11-13T07:15:35;35.23;;;15.40;;
6640;SDS011;3356;49.360;8.266;2022-11-13T07:17:58;36.87;;;14.70;;
6640;SDS011;3356;49.360;8.266;2022-11-13T07:20:19;23.70;;;14.60;;
6640;SDS011;3356;49.360;8.266;2022-11-13T07:22:39;22.13;;;13.80;;
6640;SDS011;3356;49.360;8.266;2022-11-13T07:24:58;22.93;;;14.70;;
6640;SDS011;3356;49.360;8.266;2022-11-13T07:27:18;23.90;;;14.93;;
6640;SDS011;3356;49.360;8.266;2022-11-13T07:29:37;26.67;;;14.50;;
6640;SDS011;3356;49.360;8.266;2022-11-13T07:31:57;31.77;;;14.97;;
6640;SDS011;3356;49.360;8.266;2022-11-13T07:34:16;22.67;;;14.60;;
6640;SDS011;3356;49.360;8.266;2022-11-13T07:36:36;27.17;;;13.83;;
6640;SDS011;3356;49.360;8.266;2022-11-13T07:38:55;24.33;;;15.07;;
6640;SDS011;3356;49.360;8.266;2022-11-13T07:41:15;26.23;;;17.43;;
6640;SDS011;3356;49.360;8.266;2022-11-13T07:43:35;29.33;;;17.07;;
6640;SDS011;3356;49.360;8.266;2022-11-13T07:45:56;27.47;;;17.17;;
6640;SDS011;3356;49.360;8.266;2022-11-13T07:48:16;33.87;;;18.57;;
6640;SDS011;3356;49.360;8.266;2022-11-13T07:50:36;30.13;;;18.40;;
6640;SDS011;3356;49.360;8.266;2022-11-13T07:52:57;27.40;;;16.40;;
6640;SDS011;3356;49.360;8.266;2022-11-13T07:55:18;25.27;;;16.90;;
6640;SDS011;3356;49.360;8.266;2022-11-13T07:57:38;27.57;;;16.30;;
6640;SDS011;3356;49.360;8.266;2022-11-13T07:59:58;25.73;;;16.83;;
6640;SDS011;3356;49.360;8.266;2022-11-13T08:02:18;21.20;;;14.57;;
6640;SDS011;3356;49.360;8.266;2022-11-13T08:04:38;22.93;;;14.90;;
6640;SDS011;3356;49.360;8.266;2022-11-13T08:06:57;20.40;;;15.00;;
6640;SDS011;3356;49.360;8.266;2022-11-13T08:09:17;25.07;;;16.23;;
6640;SDS011;3356;49.360;8.266;2022-11-13T08:11:36;25.97;;;16.40;;
6640;SDS011;3356;49.360;8.266;2022-11-13T08:13:56;31.97;;;15.27;;
6640;SDS011;3356;49.360;8.266;2022-11-13T08:16:15;26.83;;;15.53;;
6640;SDS011;3356;49.360;8.266;2022-11-13T08:18:35;25.83;;;15.77;;
6640;SDS011;3356;49.360;8.266;2022-11-13T08:20:55;25.07;;;15.50;;
6640;SDS011;3356;49.360;8.266;2022-11-13T08:23:15;26.57;;;16.57;;
6640;SDS011;3356;49.360;8.266;2022-11-13T08:25:35;25.70;;;16.80;;
6640;SDS011;3356;49.360;8.266;2022-11-13T08:27:55;23.73;;;16.10;;
6640;SDS011;3356;49.360;8.266;2022-11-13T08:30:15;42.13;;;16.73;;
6640;SDS011;3356;49.360;8.266;2022-11-13T08:32:35;28.50;;;16.10;;
6640;SDS011;3356;49.360;8.266;2022-11-13T08:34:55;27.13;;;16.37;;
6640;SDS011;3356;49.360;8.266;2022-11-13T08:37:14;33.30;;;15.50;;
6640;SDS011;3356;49.360;8.266;2022-11-13T08:39:34;27.87;;;15.20;;
6640;SDS011;3356;49.360;8.266;2022-11-13T08:41:54;24.03;;;14.27;;
6640;SDS011;3356;49.360;8.266;2022-11-13T08:44:13;21.53;;;15.00;;
6640;SDS011;3356;49.360;8.266;2022-11-13T08:46:33;24.27;;;14.90;;
6640;SDS011;3356;49.360;8.266;2022-11-13T08:48:53;24.67;;;15.43;;
6640;SDS011;3356;49.360;8.266;2022-11-13T08:51:12;25.33;;;16.17;;
6640;SDS011;3356;49.360;8.266;2022-11-13T08:53:32;25.10;;;13.87;;
6640;SDS011;3356;49.360;8.266;2022-11-13T08:55:51;21.60;;;14.07;;
6640;SDS011;3356;49.360;8.266;2022-11-13T08:58:11;21.57;;;13.40;;
6640;SDS011;3356;49.360;8.266;2022-11-13T09:00:31;25.53;;;14.13;;
6640;SDS011;3356;49.360;8.266;2022-11-13T09:02:57;20.70;;;13.13;;
6640;SDS011;3356;49.360;8.266;2022-11-13T09:05:18;26.13;;;14.43;;
6640;SDS011;3356;49.360;8.266;2022-11-13T09:07:38;25.70;;;14.37;;
6640;SDS011;3356;49.360;8.266;2022-11-13T09:09:58;21.37;;;14.63;;
6640;SDS011;3356;49.360;8.266;2022-11-13T09:12:17;27.10;;;14.97;;
6640;SDS011;3356;49.360;8.266;2022-11-13T09:14:37;25.07;;;16.57;;
6640;SDS011;3356;49.360;8.266;2022-11-13T09:16:57;28.77;;;15.73;;
6640;SDS011;3356;49.360;8.266;2022-11-13T09:19:16;25.67;;;15.93;;
6640;SDS011;3356;49.360;8.266;2022-11-13T09:21:36;25.47;;;17.30;;
6640;SDS011;3356;49.360;8.266;2022-11-13T09:23:55;27.77;;;18.10;;
6640;SDS011;3356;49.360;8.266;2022-11-13T09:26:15;25.83;;;17.47;;
6640;SDS011;3356;49.360;8.266;2022-11-13T09:28:35;23.77;;;16.47;;
6640;SDS011;3356;49.360;8.266;2022-11-13T09:30:55;28.20;;;20.43;;
6640;SDS011;3356;49.360;8.266;2022-11-13T09:33:15;28.57;;;20.03;;
6640;SDS011;3356;49.360;8.266;2022-11-13T09:35:35;24.00;;;17.07;;
6640;SDS011;3356;49.360;8.266;2022-11-13T09:37:54;24.17;;;17.37;;
6640;SDS011;3356;49.360;8.266;2022-11-13T09:40:19;21.57;;;16.53;;
6640;SDS011;3356;49.360;8.266;2022-11-13T09:42:45;21.20;;;16.77;;
6640;SDS011;3356;49.360;8.266;2022-11-13T09:45:06;21.10;;;16.37;;
6640;SDS011;3356;49.360;8.266;2022-11-13T09:47:38;19.50;;;16.33;;
6640;SDS011;3356;49.360;8.266;2022-11-13T09:52:36;21.80;;;17.07;;
6640;SDS011;3356;49.360;8.266;2022-11-13T09:54:59;21.60;;;16.90;;
6640;SDS011;3356;49.360;8.266;2022-11-13T09:57:25;21.10;;;15.93;;
6640;SDS011;3356;49.360;8.266;2022-11-13T10:00:16;21.63;;;17.00;;
6640;SDS011;3356;49.360;8.266;2022-11-13T10:07:51;22.03;;;17.33;;
6640;SDS011;3356;49.360;8.266;2022-11-13T10:12:55;19.40;;;15.33;;
6640;SDS011;3356;49.360;8.266;2022-11-13T10:15:18;16.70;;;13.57;;
6640;SDS011;3356;49.360;8.266;2022-11-13T10:22:55;18.50;;;13.70;;
6640;SDS011;3356;49.360;8.266;2022-11-13T10:25:25;17.03;;;13.97;;
6640;SDS011;3356;49.360;8.266;2022-11-13T10:27:52;17.13;;;14.07;;
6640;SDS011;3356;49.360;8.266;2022-11-13T10:30:17;18.57;;;14.73;;
6640;SDS011;3356;49.360;8.266;2022-11-13T10:32:37;16.70;;;13.93;;
6640;SDS011;3356;49.360;8.266;2022-11-13T10:35:08;17.60;;;14.13;;
6640;SDS011;3356;49.360;8.266;2022-11-13T10:37:59;19.17;;;14.50;;
6640;SDS011;3356;49.360;8.266;2022-11-13T10:40:27;17.10;;;14.43;;
6640;SDS011;3356;49.360;8.266;2022-11-13T10:42:48;20.00;;;13.83;;
6640;SDS011;3356;49.360;8.266;2022-11-13T10:45:15;19.30;;;15.13;;
6640;SDS011;3356;49.360;8.266;2022-11-13T10:47:41;23.17;;;16.23;;
6640;SDS011;3356;49.360;8.266;2022-11-13T10:50:08;18.73;;;14.40;;
6640;SDS011;3356;49.360;8.266;2022-11-13T10:52:29;17.33;;;13.47;;
6640;SDS011;3356;49.360;8.266;2022-11-13T10:54:49;20.57;;;15.43;;
6640;SDS011;3356;49.360;8.266;2022-11-13T10:59:52;16.77;;;13.40;;
6640;SDS011;3356;49.360;8.266;2022-11-13T11:02:19;18.83;;;14.83;;
6640;SDS011;3356;49.360;8.266;2022-11-13T11:04:40;17.03;;;14.83;;
6640;SDS011;3356;49.360;8.266;2022-11-13T11:07:10;21.67;;;14.87;;
6640;SDS011;3356;49.360;8.266;2022-11-13T11:09:35;21.67;;;15.63;;
6640;SDS011;3356;49.360;8.266;2022-11-13T11:12:10;20.57;;;15.90;;
6640;SDS011;3356;49.360;8.266;2022-11-13T11:14:39;18.87;;;15.67;;
6640;SDS011;3356;49.360;8.266;2022-11-13T11:17:14;18.80;;;15.00;;
6640;SDS011;3356;49.360;8.266;2022-11-13T11:19:37;20.33;;;14.83;;
6640;SDS011;3356;49.360;8.266;2022-11-13T11:22:08;19.70;;;14.67;;
6640;SDS011;3356;49.360;8.266;2022-11-13T11:24:36;20.07;;;15.97;;
6640;SDS011;3356;49.360;8.266;2022-11-13T11:27:02;21.37;;;14.70;;
6640;SDS011;3356;49.360;8.266;2022-11-13T11:32:26;21.37;;;16.37;;
6640;SDS011;3356;49.360;8.266;2022-11-13T11:37:38;19.40;;;15.17;;
6640;SDS011;3356;49.360;8.266;2022-11-13T11:47:58;21.03;;;15.50;;
6640;SDS011;3356;49.360;8.266;2022-11-13T11:52:56;20.80;;;16.73;;
6640;SDS011;3356;49.360;8.266;2022-11-13T12:01:17;20.27;;;15.97;;
6640;SDS011;3356;49.360;8.266;2022-11-13T12:03:58;17.90;;;14.83;;
6640;SDS011;3356;49.360;8.266;2022-11-13T12:06:36;21.43;;;16.97;;
6640;SDS011;3356;49.360;8.266;2022-11-13T12:14:22;23.47;;;17.43;;
6640;SDS011;3356;49.360;8.266;2022-11-13T12:22:29;24.03;;;18.23;;
6640;SDS011;3356;49.360;8.266;2022-11-13T12:27:32;26.73;;;20.90;;
6640;SDS011;3356;49.360;8.266;2022-11-13T12:34:50;57.57;;;33.23;;
6640;SDS011;3356;49.360;8.266;2022-11-13T12:37:16;35.53;;;23.73;;
6640;SDS011;3356;49.360;8.266;2022-11-13T12:47:41;30.73;;;20.50;;
6640;SDS011;3356;49.360;8.266;2022-11-13T12:50:03;33.90;;;22.83;;
6640;SDS011;3356;49.360;8.266;2022-11-13T12:52:37;39.67;;;25.63;;
6640;SDS011;3356;49.360;8.266;2022-11-13T12:55:07;40.13;;;25.73;;
6640;SDS011;3356;49.360;8.266;2022-11-13T12:57:46;37.90;;;26.93;;
6640;SDS011;3356;49.360;8.266;2022-11-13T13:00:10;39.20;;;26.50;;
6640;SDS011;3356;49.360;8.266;2022-11-13T13:08:43;41.43;;;26.73;;
6640;SDS011;3356;49.360;8.266;2022-11-13T13:11:36;39.63;;;26.70;;
6640;SDS011;3356;49.360;8.266;2022-11-13T13:16:31;43.23;;;28.33;;
6640;SDS011;3356;49.360;8.266;2022-11-13T13:18:51;38.77;;;25.00;;
6640;SDS011;3356;49.360;8.266;2022-11-13T13:21:12;41.97;;;25.77;;
6640;SDS011;3356;49.360;8.266;2022-11-13T13:23:37;31.67;;;22.30;;
6640;SDS011;3356;49.360;8.266;2022-11-13T13:41:38;39.83;;;23.50;;
6640;SDS011;3356;49.360;8.266;2022-11-13T13:44:44;34.33;;;25.47;;
6640;SDS011;3356;49.360;8.266;2022-11-13T13:47:26;30.63;;;21.53;;
6640;SDS011;3356;49.360;8.266;2022-11-13T13:49:53;32.00;;;21.47;;
6640;SDS011;3356;49.360;8.266;2022-11-13T13:52:13;28.57;;;21.43;;
6640;SDS011;3356;49.360;8.266;2022-11-13T13:54:34;26.83;;;19.60;;
6640;SDS011;3356;49.360;8.266;2022-11-13T13:56:56;25.23;;;18.40;;
6640;SDS011;3356;49.360;8.266;2022-11-13T13:59:18;20.47;;;14.93;;
6640;SDS011;3356;49.360;8.266;2022-11-13T14:01:39;17.10;;;13.03;;
6640;SDS011;3356;49.360;8.266;2022-11-13T14:04:02;15.13;;;11.77;;
6640;SDS011;3356;49.360;8.266;2022-11-13T14:06:56;12.73;;;10.27;;
6640;SDS011;3356;49.360;8.266;2022-11-13T14:09:20;11.50;;;9.93;;
6640;SDS011;3356;49.360;8.266;2022-11-13T14:11:42;19.10;;;12.33;;
6640;SDS011;3356;49.360;8.266;2022-11-13T14:14:09;13.40;;;10.73;;
6640;SDS011;3356;49.360;8.266;2022-11-13T14:16:33;14.57;;;11.00;;
6640;SDS011;3356;49.360;8.266;2022-11-13T14:19:04;10.57;;;8.60;;
6640;SDS011;3356;49.360;8.266;2022-11-13T14:21:23;10.63;;;9.53;;
6640;SDS011;3356;49.360;8.266;2022-11-13T14:23:47;10.60;;;8.97;;
6640;SDS011;3356;49.360;8.266;2022-11-13T14:26:09;20.03;;;12.00;;
6640;SDS011;3356;49.360;8.266;2022-11-13T14:28:31;17.17;;;11.67;;
6640;SDS011;3356;49.360;8.266;2022-11-13T14:31:02;18.63;;;13.07;;
6640;SDS011;3356;49.360;8.266;2022-11-13T14:33:28;12.10;;;9.73;;
6640;SDS011;3356;49.360;8.266;2022-11-13T14:35:54;10.60;;;8.40;;
6640;SDS011;3356;49.360;8.266;2022-11-13T14:38:18;9.93;;;8.87;;
6640;SDS011;3356;49.360;8.266;2022-11-13T14:40:40;11.30;;;9.00;;
6640;SDS011;3356;49.360;8.266;2022-11-13T14:43:06;9.03;;;8.13;;
6640;SDS011;3356;49.360;8.266;2022-11-13T14:45:27;10.93;;;7.90;;
6640;SDS011;3356;49.360;8.266;2022-11-13T14:47:54;9.40;;;8.33;;
6640;SDS011;3356;49.360;8.266;2022-11-13T14:50:20;8.07;;;7.27;;
6640;SDS011;3356;49.360;8.266;2022-11-13T14:52:40;10.37;;;8.03;;
6640;SDS011;3356;49.360;8.266;2022-11-13T14:55:01;8.97;;;7.00;;
6640;SDS011;3356;49.360;8.266;2022-11-13T14:57:22;9.00;;;8.03;;
6640;SDS011;3356;49.360;8.266;2022-11-13T14:59:42;9.30;;;8.13;;
6640;SDS011;3356;49.360;8.266;2022-11-13T15:02:02;18.30;;;11.10;;
6640;SDS011;3356;49.360;8.266;2022-11-13T15:04:23;17.07;;;11.33;;
6640;SDS011;3356;49.360;8.266;2022-11-13T15:06:43;15.27;;;11.07;;
6640;SDS011;3356;49.360;8.266;2022-11-13T15:09:04;14.40;;;10.57;;
6640;SDS011;3356;49.360;8.266;2022-11-13T15:11:28;12.20;;;8.77;;
6640;SDS011;3356;49.360;8.266;2022-11-13T15:13:48;13.47;;;9.07;;
6640;SDS011;3356;49.360;8.266;2022-11-13T15:16:18;16.87;;;10.53;;
6640;SDS011;3356;49.360;8.266;2022-11-13T15:18:45;17.50;;;12.50;;
6640;SDS011;3356;49.360;8.266;2022-11-13T15:21:08;19.87;;;11.80;;
6640;SDS011;3356;49.360;8.266;2022-11-13T15:23:27;16.07;;;10.60;;
6640;SDS011;3356;49.360;8.266;2022-11-13T15:25:47;10.17;;;8.50;;
6640;SDS011;3356;49.360;8.266;2022-11-13T15:28:07;14.43;;;9.80;;
6640;SDS011;3356;49.360;8.266;2022-11-13T15:30:27;13.07;;;9.90;;
6640;SDS011;3356;49.360;8.266;2022-11-13T15:32:47;8.97;;;8.00;;
6640;SDS011;3356;49.360;8.266;2022-11-13T15:35:16;11.43;;;8.70;;
6640;SDS011;3356;49.360;8.266;2022-11-13T15:37:36;9.93;;;8.40;;
6640;SDS011;3356;49.360;8.266;2022-11-13T15:39:56;13.50;;;10.73;;
6640;SDS011;3356;49.360;8.266;2022-11-13T15:42:16;15.33;;;10.47;;
6640;SDS011;3356;49.360;8.266;2022-11-13T15:44:38;13.47;;;9.30;;
6640;SDS011;3356;49.360;8.266;2022-11-13T15:46:58;10.60;;;8.80;;
6640;SDS011;3356;49.360;8.266;2022-11-13T15:49:18;11.23;;;8.80;;
6640;SDS011;3356;49.360;8.266;2022-11-13T15:51:40;9.13;;;8.13;;
6640;SDS011;3356;49.360;8.266;2022-11-13T15:54:04;10.40;;;7.93;;
6640;SDS011;3356;49.360;8.266;2022-11-13T15:56:35;7.73;;;7.03;;
6640;SDS011;3356;49.360;8.266;2022-11-13T15:58:55;7.40;;;6.47;;
6640;SDS011;3356;49.360;8.266;2022-11-13T16:01:14;8.40;;;6.67;;